Humidity-temperature Sensor

Selected Measurement Type: Relative Humidity

 
Relative Humidity [%]     6 entries per hour
Showing data from 11/22/2021 (00:00:00 Z) to 11/21/2021 (00:01:00 Z)
Previous Next [ Day | 3-Days | 7-Days ]
First Last
Prev [ Day | 3-Days | 7-Days ] Next
First Last

Start Time:     :
End Time:     :     
Time (in GMT) :00 :50 :40 :30 :20 :10
Previous Next [ Day | 3-Days | 7-Days ]
First Last
Prev [ Day | 3-Days | 7-Days ] Next
First Last


123 => good data
MM => data is determined as missing
-- => data not received/configured
Back to Top Back to Top
11/22/2021 00:00 to 23:10 95.88 95.88 95.90 95.82 95.86 95.86
11/21/2021 23:00 to 22:10 95.94 95.90 95.90 95.92 95.90 95.94
11/21/2021 22:00 to 21:10 95.96 96.02 96.13 96.08 96.11 96.17
11/21/2021 21:00 to 20:10 96.21 96.15 96.19 96.11 96.08 96.13
11/21/2021 20:00 to 19:10 96.04 96.04 95.94 96.00 95.94 95.90
11/21/2021 19:00 to 18:10 95.86 95.84 95.74 95.78 95.78 95.74
11/21/2021 18:00 to 17:10 95.70 95.70 95.74 95.70 95.78 95.78
11/21/2021 17:00 to 16:10 95.84 95.94 96.08 96.02 95.78 95.48
11/21/2021 16:00 to 15:10 95.10 94.81 94.55 94.31 94.15 94.04
11/21/2021 15:00 to 14:10 94.04 94.04 94.11 94.23 94.57 94.85
11/21/2021 14:00 to 13:10 95.26 95.78 96.53 97.68 97.28 97.60
11/21/2021 13:00 to 12:10 97.60 97.60 97.58 97.52 97.56 97.48
11/21/2021 12:00 to 11:10 97.60 97.60 97.60 97.70 97.84 97.90
11/21/2021 11:00 to 10:10 97.78 97.66 97.58 97.56 97.54 97.44
11/21/2021 10:00 to 9:10 97.36 97.30 97.34 97.42 97.52 97.52
11/21/2021 09:00 to 8:10 97.48 97.48 97.46 97.46 97.40 97.44
11/21/2021 08:00 to 7:10 97.38 97.28 97.22 97.09 96.97 96.89
11/21/2021 07:00 to 6:10 96.77 96.69 96.59 96.53 96.47 96.39
11/21/2021 06:00 to 5:10 96.33 96.31 96.13 96.11 95.80 95.70
11/21/2021 05:00 to 4:10 95.48 95.36 95.22 95.01 94.91 94.71
11/21/2021 04:00 to 3:10 94.61 94.55 94.55 94.39 94.39 94.29
11/21/2021 03:00 to 2:10 94.15 93.92 93.82 93.60 93.44 93.36
11/21/2021 02:00 to 1:10 93.30 93.20 92.77 92.71 92.43 92.43
11/21/2021 01:00 to 0:10 91.94 91.72 91.80 91.60 91.62 91.54